Time;durP1;ratioP1;P1;durP2;ratioP2;P2;SDS_P1;SDS_P2;PMS_P1;PMS_P2;Temp;Humidity;BMP_temperature;BMP_pressure;BME280_temperature;BME280_humidity;BME280_pressure;Samples;Min_cycle;Max_cycle;Signal;HPM_P1;HPM_P2
2022/11/11 00:01:26;;;;;;;1.20;0.80;;;;;;;20.99;33.01;101793.16;4535550;28;20037;-62
2022/11/11 00:03:55;;;;;;;1.02;0.70;;;;;;;21.00;33.28;101789.09;4534228;28;20040;-61
2022/11/11 00:06:25;;;;;;;0.90;0.73;;;;;;;20.99;33.22;101796.00;4533065;28;21805;-62
2022/11/11 00:08:53;;;;;;;0.85;0.70;;;;;;;20.99;33.60;101795.16;4535588;28;20049;-61
2022/11/11 00:11:23;;;;;;;1.67;0.80;;;;;;;20.97;33.35;101794.66;4534081;28;20516;-61
2022/11/11 00:13:53;;;;;;;1.08;0.77;;;;;;;20.98;33.56;101802.91;4536011;28;20054;-61
2022/11/11 00:16:22;;;;;;;1.33;0.80;;;;;;;20.98;33.92;101802.91;4535140;28;20049;-62
2022/11/11 00:27:14;;;;;;;1.17;0.77;;;;;;;20.96;33.72;101822.53;4534395;28;20049;-61
2022/11/11 00:29:47;;;;;;;0.90;0.80;;;;;;;20.93;33.47;101811.66;4533364;28;20702;-62
2022/11/11 00:32:21;;;;;;;1.10;0.80;;;;;;;20.96;33.41;101813.91;4535503;28;20046;-62
2022/11/11 00:37:42;;;;;;;0.98;0.88;;;;;;;20.94;32.97;101798.19;4535894;28;20544;-61
2022/11/11 00:40:12;;;;;;;1.27;0.80;;;;;;;20.94;32.88;101807.63;4533558;28;20084;-61
2022/11/11 00:42:41;;;;;;;0.98;0.70;;;;;;;20.94;32.86;101810.50;4534713;28;20846;-62
2022/11/11 00:45:10;;;;;;;0.85;0.85;;;;;;;20.93;32.67;101811.66;4535201;28;20025;-61
2022/11/11 00:53:19;;;;;;;0.85;0.80;;;;;;;20.92;32.64;101792.78;4534477;28;20045;-61
2022/11/11 00:55:48;;;;;;;1.02;0.70;;;;;;;20.92;32.65;101804.25;4533782;28;20052;-62
2022/11/11 00:58:17;;;;;;;1.63;0.73;;;;;;;20.92;32.90;101806.28;4535263;28;20568;-62
2022/11/11 01:00:49;;;;;;;0.63;0.63;;;;;;;20.91;32.96;101801.72;4534333;28;20029;-62
2022/11/11 01:03:18;;;;;;;1.17;0.85;;;;;;;20.91;32.82;101805.44;4534048;28;20587;-61
2022/11/11 01:05:48;;;;;;;1.02;0.82;;;;;;;20.91;32.64;101811.19;4534414;28;20037;-61
2022/11/11 01:08:17;;;;;;;1.27;0.70;;;;;;;20.90;32.90;101815.22;4534284;28;20045;-61
2022/11/11 01:10:47;;;;;;;1.95;1.10;;;;;;;20.89;32.99;101815.56;4533975;28;20040;-62
2022/11/11 01:13:22;;;;;;;1.05;0.80;;;;;;;20.88;32.54;101814.75;4534702;28;20041;-62
2022/11/11 01:15:56;;;;;;;0.85;0.80;;;;;;;20.87;32.49;101809.34;4535163;28;20572;-62
2022/11/11 01:18:26;;;;;;;1.15;0.90;;;;;;;20.88;32.47;101814.75;4534761;28;20045;-62
2022/11/11 01:21:09;;;;;;;1.08;0.90;;;;;;;20.88;32.33;101811.03;4536023;28;20041;-61
2022/11/11 01:23:40;;;;;;;1.75;0.90;;;;;;;20.88;32.73;101823.34;4533065;28;20073;-62
2022/11/11 01:26:16;;;;;;;0.88;0.80;;;;;;;20.88;33.00;101813.91;4533747;28;20159;-62
2022/11/11 01:28:48;;;;;;;1.40;0.90;;;;;;;20.87;32.62;101824.53;4532612;28;20052;-61
2022/11/11 01:31:19;;;;;;;2.25;0.88;;;;;;;20.87;32.74;101829.44;4533590;28;21141;-62
2022/11/11 01:33:49;;;;;;;1.40;1.00;;;;;;;20.86;33.03;101828.59;4534640;28;21044;-62
2022/11/11 01:36:22;;;;;;;1.15;0.90;;;;;;;20.84;32.99;101822.34;4536699;28;20049;-62
2022/11/11 01:38:54;;;;;;;1.20;0.85;;;;;;;20.84;33.15;101816.59;4533391;28;20573;-62
2022/11/11 01:41:32;;;;;;;1.50;0.90;;;;;;;20.85;32.88;101818.31;4548463;28;20509;-62
2022/11/11 01:44:11;;;;;;;1.05;0.90;;;;;;;20.84;33.07;101822.34;4534060;28;20081;-62
2022/11/11 01:47:06;;;;;;;0.70;0.70;;;;;;;20.84;32.90;101822.34;4533532;28;20041;-62
2022/11/11 01:49:49;;;;;;;1.48;1.00;;;;;;;20.83;32.99;101827.22;4533133;28;20151;-62
2022/11/11 01:52:25;;;;;;;1.27;0.90;;;;;;;20.83;33.13;101830.09;4535389;28;20777;-62
2022/11/11 01:55:08;;;;;;;1.35;0.80;;;;;;;20.83;32.82;101827.22;4531917;28;20969;-62
2022/11/11 01:57:43;;;;;;;0.95;0.70;;;;;;;20.83;33.24;101824.34;4533127;28;20786;-61
2022/11/11 02:00:17;;;;;;;1.08;0.90;;;;;;;20.82;33.12;101824.69;4532809;28;20049;-62
2022/11/11 02:02:47;;;;;;;1.20;1.00;;;;;;;20.82;33.42;101844.78;4532515;28;20049;-62
2022/11/11 02:08:31;;;;;;;2.22;0.90;;;;;;;20.81;33.49;101831.63;4533603;28;21297;-62
2022/11/11 02:16:59;;;;;;;1.25;0.90;;;;;;;20.79;33.54;101839.72;4531953;28;20588;-62
2022/11/11 02:19:41;;;;;;;1.88;0.80;;;;;;;20.79;33.47;101840.56;4534301;28;20044;-62
2022/11/11 02:22:22;;;;;;;0.75;0.75;;;;;;;20.78;33.27;101846.66;4534488;28;20041;-61
2022/11/11 02:24:52;;;;;;;1.10;0.90;;;;;;;20.78;32.77;101843.78;4532856;28;20040;-62
2022/11/11 02:27:25;;;;;;;1.10;0.90;;;;;;;20.75;32.77;101838.72;4533605;28;20088;-62
2022/11/11 02:29:56;;;;;;;1.23;1.02;;;;;;;20.77;32.50;101840.06;4533998;28;20155;-62
2022/11/11 02:32:26;;;;;;;0.68;0.68;;;;;;;20.76;32.25;101835.50;4531654;28;21324;-62
2022/11/11 02:34:55;;;;;;;1.35;0.90;;;;;;;20.75;32.46;101830.97;4526246;28;20038;-62
2022/11/11 02:37:25;;;;;;;0.70;0.68;;;;;;;20.76;32.56;101829.78;4533255;28;20560;-62
2022/11/11 02:40:00;;;;;;;1.20;0.80;;;;;;;20.75;32.69;101832.97;4535060;28;20045;-62
2022/11/11 02:42:29;;;;;;;1.00;0.80;;;;;;;20.75;32.79;101830.13;4532614;28;20053;-62
2022/11/11 02:44:59;;;;;;;1.55;0.77;;;;;;;20.74;32.73;101819.81;4531999;28;20040;-62
2022/11/11 02:47:28;;;;;;;0.80;0.70;;;;;;;20.73;32.65;101818.13;4533671;28;20737;-62
2022/11/11 02:49:57;;;;;;;0.77;0.70;;;;;;;20.74;32.45;101823.53;4532100;28;20057;-62
2022/11/11 02:52:26;;;;;;;0.88;0.63;;;;;;;20.74;32.88;101814.06;4532486;28;20041;-62
2022/11/11 02:54:55;;;;;;;0.50;0.50;;;;;;;20.73;32.88;101816.13;4533470;28;20042;-62
2022/11/11 02:57:24;;;;;;;0.82;0.60;;;;;;;20.74;33.46;101819.81;4532637;28;20981;-62
2022/11/11 02:59:53;;;;;;;1.40;0.60;;;;;;;20.70;33.69;101811.06;4533719;28;20041;-62
2022/11/11 03:02:26;;;;;;;0.85;0.57;;;;;;;20.73;33.69;101812.38;4536106;28;20049;-62
2022/11/11 03:04:56;;;;;;;0.82;0.55;;;;;;;20.72;33.67;101816.44;4536012;28;20041;-62
2022/11/11 03:07:25;;;;;;;0.77;0.55;;;;;;;20.72;33.78;101823.00;4535153;28;20040;-62
2022/11/11 03:09:54;;;;;;;0.60;0.60;;;;;;;20.71;33.68;101826.22;4534877;28;20037;-62
2022/11/11 03:12:23;;;;;;;0.68;0.60;;;;;;;20.69;33.90;101822.88;4536467;28;20045;-62
2022/11/11 03:14:54;;;;;;;0.77;0.40;;;;;;;20.70;33.48;101819.66;4534563;28;20069;-62
2022/11/11 03:17:38;;;;;;;1.00;0.50;;;;;;;20.69;33.96;101823.69;4535279;28;21224;-62
2022/11/11 03:23:15;;;;;;;0.68;0.60;;;;;;;20.70;33.93;101819.66;4536625;28;20049;-62
2022/11/11 03:25:46;;;;;;;0.63;0.40;;;;;;;20.69;33.77;101817.94;4536440;28;20046;-62
2022/11/11 03:28:20;;;;;;;0.70;0.52;;;;;;;20.69;33.84;101822.88;4534240;28;20045;-62
2022/11/11 03:30:49;;;;;;;1.98;0.63;;;;;;;20.66;33.90;101817.81;4534960;28;20667;-62
2022/11/11 03:33:18;;;;;;;0.73;0.52;;;;;;;20.67;33.71;101825.22;4535492;28;20041;-62
2022/11/11 03:35:47;;;;;;;0.93;0.60;;;;;;;20.68;33.87;101832.63;4536721;28;20762;-62
2022/11/11 03:38:23;;;;;;;0.60;0.50;;;;;;;20.68;33.67;101838.38;4535102;28;20049;-62
2022/11/11 03:40:55;;;;;;;0.80;0.50;;;;;;;20.60;33.92;101825.72;4536120;28;20040;-61
2022/11/11 03:43:26;;;;;;;0.60;0.60;;;;;;;20.66;33.46;101841.59;4536046;28;20049;-62
2022/11/11 03:45:58;;;;;;;0.50;0.50;;;;;;;20.68;33.75;101849.84;4535898;28;20097;-62
2022/11/11 03:48:29;;;;;;;0.73;0.70;;;;;;;20.66;33.62;101853.06;4535808;28;20144;-62
2022/11/11 03:50:58;;;;;;;0.82;0.50;;;;;;;20.66;34.04;101857.97;4535713;28;20050;-62
2022/11/11 03:53:28;;;;;;;1.05;0.60;;;;;;;20.65;33.59;101862.88;4536639;28;20045;-62
2022/11/11 03:55:56;;;;;;;0.55;0.43;;;;;;;20.62;33.64;101854.06;4536643;28;20045;-62
2022/11/11 03:58:25;;;;;;;0.70;0.52;;;;;;;20.66;33.30;101852.25;4536664;28;20050;-62
2022/11/11 04:00:54;;;;;;;0.57;0.50;;;;;;;20.64;33.30;101849.69;4536385;28;20037;-62
2022/11/11 04:11:47;;;;;;;1.07;0.50;;;;;;;20.62;32.88;101840.59;4534136;28;20049;-62
2022/11/11 04:17:04;;;;;;;0.60;0.60;;;;;;;20.63;33.41;101838.53;4535952;28;20041;-64
2022/11/11 04:22:21;;;;;;;1.05;0.60;;;;;;;20.61;33.21;101846.66;4535690;28;20037;-62
2022/11/11 04:27:38;;;;;;;1.27;0.50;;;;;;;20.60;33.27;101836.34;4536188;28;20049;-62
2022/11/11 04:30:07;;;;;;;1.23;0.60;;;;;;;20.59;33.24;101834.69;4535808;28;20050;-63
2022/11/11 04:32:39;;;;;;;0.65;0.57;;;;;;;20.59;33.25;101832.66;4535492;28;20088;-62
2022/11/11 04:35:13;;;;;;;0.68;0.50;;;;;;;20.61;33.20;101843.78;4535077;28;21036;-62
2022/11/11 04:37:49;;;;;;;0.45;0.45;;;;;;;20.60;33.65;101844.97;4536515;28;20565;-62
2022/11/11 04:43:05;;;;;;;0.70;0.65;;;;;;;20.59;33.30;101840.41;4534315;28;20040;-63
2022/11/11 04:45:37;;;;;;;3.28;1.60;;;;;;;20.59;33.68;101846.16;4534502;28;20046;-62
2022/11/11 04:48:08;;;;;;;1.40;1.25;;;;;;;20.58;33.49;101830.13;4536657;28;20162;-62
2022/11/11 04:50:42;;;;;;;1.38;0.60;;;;;;;20.58;33.12;101830.13;4533333;28;20041;-62
2022/11/11 04:53:13;;;;;;;1.35;0.60;;;;;;;20.58;33.07;101833.81;4534868;28;20603;-62
2022/11/11 04:58:32;;;;;;;;;;;;;;;20.58;32.89;101838.75;4535635;28;20045;-62
2022/11/11 05:01:01;;;;;;;0.93;0.70;;;;;;;20.56;33.39;101841.94;4535861;28;19921;-62
2022/11/11 05:03:30;;;;;;;0.80;0.60;;;;;;;20.53;33.36;101841.78;4533781;28;20049;-62
2022/11/11 05:08:54;;;;;;;1.05;0.68;;;;;;;20.56;33.48;101849.69;4534044;28;20592;-62
2022/11/11 05:11:28;;;;;;;0.85;0.70;;;;;;;20.55;33.31;101845.97;4535682;28;20049;-62
2022/11/11 05:22:35;;;;;;;0.82;0.60;;;;;;;20.54;33.17;101840.56;4534167;28;20052;-62
2022/11/11 05:25:24;;;;;;;0.80;0.60;;;;;;;20.54;33.13;101854.91;4534135;28;20268;-62
2022/11/11 05:27:54;;;;;;;0.77;0.60;;;;;;;20.53;32.74;101842.59;4534824;28;20041;-61
2022/11/11 05:30:25;;;;;;;0.82;0.60;;;;;;;20.53;32.92;101842.59;4533790;28;20053;-62
2022/11/11 05:32:54;;;;;;;0.60;0.60;;;;;;;20.52;33.13;101849.53;4535909;28;20548;-62
2022/11/11 05:35:23;;;;;;;0.80;0.60;;;;;;;20.53;33.06;101847.50;4534824;28;20564;-62
2022/11/11 05:40:40;;;;;;;0.73;0.50;;;;;;;20.50;33.17;101830.97;4532955;28;20371;-61
2022/11/11 05:43:09;;;;;;;0.85;0.60;;;;;;;20.51;33.22;101833.50;4532952;28;20256;-62
2022/11/11 05:45:40;;;;;;;0.77;0.50;;;;;;;20.51;33.17;101841.25;4535776;28;20667;-62
2022/11/11 05:48:09;;;;;;;1.30;0.63;;;;;;;20.52;33.38;101848.66;4533880;28;20041;-62
2022/11/11 05:50:41;;;;;;;0.40;0.40;;;;;;;20.51;33.18;101855.59;4534013;28;20053;-62
2022/11/11 05:53:09;;;;;;;0.52;0.50;;;;;;;20.51;33.42;101858.47;4535763;28;20048;-62
2022/11/11 05:55:38;;;;;;;0.80;0.65;;;;;;;20.51;33.71;101867.06;4533853;28;20521;-62
2022/11/11 05:58:07;;;;;;;1.17;0.60;;;;;;;20.50;33.51;101862.53;4533653;28;21012;-62
2022/11/11 06:00:36;;;;;;;0.73;0.73;;;;;;;20.50;33.67;101871.13;4533915;28;20628;-62
2022/11/11 06:03:05;;;;;;;1.02;0.75;;;;;;;20.50;33.61;101871.13;4535712;28;20048;-64
2022/11/11 06:05:38;;;;;;;0.98;0.70;;;;;;;20.49;33.46;101878.03;4533711;28;20773;-62
2022/11/11 06:08:07;;;;;;;0.50;0.50;;;;;;;20.48;33.15;101873.47;4531757;28;20112;-62
2022/11/11 06:10:37;;;;;;;0.73;0.60;;;;;;;20.49;32.82;101869.41;4534868;28;20033;-63
2022/11/11 06:13:09;;;;;;;0.52;0.50;;;;;;;20.47;32.92;101884.09;4533364;28;20049;-62
2022/11/11 06:15:39;;;;;;;0.40;0.40;;;;;;;20.48;32.95;101884.94;4530434;28;20049;-62
2022/11/11 06:18:09;;;;;;;1.00;0.60;;;;;;;20.47;32.94;101883.28;4532345;28;20049;-62
2022/11/11 06:20:37;;;;;;;0.80;0.60;;;;;;;20.47;33.05;101889.00;4533211;28;20053;-62
2022/11/11 06:23:07;;;;;;;0.65;0.50;;;;;;;20.46;33.20;101893.88;4532859;28;20049;-62
2022/11/11 06:28:23;;;;;;;2.47;0.80;;;;;;;20.46;33.63;101911.09;4532343;28;20040;-62
2022/11/11 06:30:53;;;;;;;1.50;0.80;;;;;;;20.46;33.44;101915.97;4533058;28;20045;-62
2022/11/11 06:33:22;;;;;;;1.20;0.90;;;;;;;20.46;33.64;101925.44;4532522;28;20049;-62
2022/11/11 06:35:51;;;;;;;1.67;0.80;;;;;;;20.45;33.33;101920.03;4536092;28;20624;-62
2022/11/11 06:38:20;;;;;;;1.48;0.88;;;;;;;20.45;33.21;101926.63;4536696;28;20033;-62
2022/11/11 06:40:48;;;;;;;1.25;0.80;;;;;;;20.45;33.39;101925.78;4536483;28;20040;-62
2022/11/11 06:43:17;;;;;;;1.23;0.73;;;;;;;20.42;33.00;101929.31;4535302;28;20048;-62
2022/11/11 06:45:51;;;;;;;0.90;0.60;;;;;;;20.44;32.74;101933.53;4535417;28;20045;-62
2022/11/11 06:48:22;;;;;;;0.70;0.70;;;;;;;20.44;32.83;101930.66;4535984;28;20593;-62
2022/11/11 06:50:52;;;;;;;1.70;0.68;;;;;;;20.43;32.82;101928.97;4536206;28;20045;-62
2022/11/11 06:53:21;;;;;;;0.90;0.70;;;;;;;20.43;33.14;101939.59;4535714;28;20054;-62
2022/11/11 06:55:52;;;;;;;1.33;0.80;;;;;;;20.42;32.95;101944.47;4536397;28;20045;-62
2022/11/11 06:58:21;;;;;;;0.98;0.80;;;;;;;20.43;33.29;101939.59;4536061;28;20324;-62
2022/11/11 07:00:50;;;;;;;1.23;0.70;;;;;;;20.42;33.17;101940.78;4534349;28;20136;-62
2022/11/11 07:03:20;;;;;;;0.73;0.60;;;;;;;20.42;33.11;101937.91;4534928;28;20049;-62
2022/11/11 07:05:50;;;;;;;0.90;0.70;;;;;;;20.42;33.05;101937.91;4535330;28;20081;-62
2022/11/11 07:08:19;;;;;;;0.70;0.70;;;;;;;20.38;33.20;101943.47;4535161;28;20028;-62
2022/11/11 07:10:48;;;;;;;0.70;0.70;;;;;;;20.40;33.48;101943.13;4534645;28;20048;-62
2022/11/11 07:13:17;;;;;;;1.55;0.88;;;;;;;20.41;33.46;101948.53;4534353;28;20054;-62
2022/11/11 07:15:46;;;;;;;1.10;0.60;;;;;;;20.38;33.72;101943.47;4535619;28;21603;-62
2022/11/11 07:18:16;;;;;;;0.90;0.60;;;;;;;20.41;33.91;101962.03;4534314;28;20046;-62
2022/11/11 07:20:45;;;;;;;1.30;0.70;;;;;;;20.39;33.61;101956.63;4535275;28;20049;-62
2022/11/11 07:23:16;;;;;;;1.05;0.70;;;;;;;20.40;34.02;101963.22;4536023;28;20045;-62
2022/11/11 07:25:45;;;;;;;0.90;0.70;;;;;;;20.39;33.96;101961.53;4534951;28;20581;-62
2022/11/11 07:28:14;;;;;;;0.50;0.50;;;;;;;20.35;34.09;101954.75;4534979;28;20049;-62
2022/11/11 07:30:43;;;;;;;0.98;0.70;;;;;;;20.41;33.90;101964.88;4535872;28;20044;-62
2022/11/11 07:33:12;;;;;;;0.70;0.60;;;;;;;20.40;33.91;101969.81;4537004;28;20049;-62
2022/11/11 07:35:41;;;;;;;0.88;0.70;;;;;;;20.40;34.04;101968.94;4535964;28;20612;-62
2022/11/11 07:38:10;;;;;;;0.65;0.65;;;;;;;20.40;34.48;101960.34;4534949;28;20041;-62
2022/11/11 07:40:39;;;;;;;1.67;0.75;;;;;;;20.38;34.68;101954.94;4535442;28;20041;-64
2022/11/11 07:43:08;;;;;;;0.85;0.70;;;;;;;20.39;34.54;101955.78;4535540;28;20588;-63
2022/11/11 07:45:37;;;;;;;1.00;0.70;;;;;;;20.38;34.89;101954.94;4536593;28;20045;-63
2022/11/11 07:48:06;;;;;;;1.83;0.80;;;;;;;20.35;35.13;101952.75;4535829;28;20041;-63
2022/11/11 07:50:35;;;;;;;0.77;0.60;;;;;;;20.38;34.83;101954.09;4536307;28;20758;-63
2022/11/11 07:53:04;;;;;;;1.17;0.70;;;;;;;20.38;35.13;101951.22;4535773;28;20045;-63
2022/11/11 07:55:33;;;;;;;1.98;0.70;;;;;;;20.38;34.86;101959.81;4535510;28;20128;-63
2022/11/11 07:58:02;;;;;;;1.23;0.60;;;;;;;20.37;35.09;101958.13;4533356;28;20045;-63
2022/11/11 08:00:31;;;;;;;0.70;0.55;;;;;;;20.37;35.17;101967.59;4534999;28;20092;-63
2022/11/11 08:03:00;;;;;;;1.02;0.60;;;;;;;20.36;35.47;101963.03;4535151;28;20873;-63
2022/11/11 08:05:29;;;;;;;1.13;0.70;;;;;;;20.34;35.39;101964.53;4536712;28;20971;-63
2022/11/11 08:08:04;;;;;;;0.60;0.60;;;;;;;20.36;35.48;101957.28;4534204;28;20592;-61
2022/11/11 08:10:34;;;;;;;1.02;0.70;;;;;;;20.37;36.03;101955.28;4533611;28;20288;-61
2022/11/11 08:15:50;;;;;;;1.52;0.80;;;;;;;20.37;35.94;101963.88;4534686;28;20049;-62
2022/11/11 08:18:19;;;;;;;1.67;0.80;;;;;;;20.33;36.05;101955.09;4533742;28;20041;-61
2022/11/11 08:20:48;;;;;;;1.08;0.80;;;;;;;20.35;35.96;101949.88;4533572;28;20049;-61
2022/11/11 08:23:24;;;;;;;0.93;0.50;;;;;;;20.37;36.20;101958.13;4534878;28;20045;-63
2022/11/11 08:25:53;;;;;;;0.93;0.60;;;;;;;20.35;36.17;101960.50;4534008;28;20045;-62
2022/11/11 08:28:22;;;;;;;0.77;0.50;;;;;;;20.36;35.95;101967.94;4533518;28;20486;-62
2022/11/11 08:30:51;;;;;;;0.63;0.50;;;;;;;20.36;36.47;101967.94;4535161;28;20036;-62
2022/11/11 08:33:20;;;;;;;0.63;0.50;;;;;;;20.36;36.46;101970.81;4534182;28;20045;-62
2022/11/11 08:35:49;;;;;;;0.63;0.60;;;;;;;20.36;36.42;101965.06;4533482;28;20741;-62
2022/11/11 08:38:20;;;;;;;0.93;0.60;;;;;;;20.35;36.49;101966.22;4532141;28;20045;-62
2022/11/11 08:40:50;;;;;;;0.75;0.63;;;;;;;20.35;36.33;101960.50;4534496;28;20049;-62
2022/11/11 08:43:21;;;;;;;1.27;0.80;;;;;;;20.31;36.59;101953.75;4534149;28;20045;-62
2022/11/11 08:45:53;;;;;;;0.80;0.68;;;;;;;20.34;36.80;101962.50;4536641;28;20045;-64
2022/11/11 08:48:22;;;;;;;0.82;0.70;;;;;;;20.34;36.94;101964.53;4534760;28;20049;-64
2022/11/11 08:50:52;;;;;;;1.80;0.70;;;;;;;20.35;36.75;101966.22;4534846;28;20045;-63
2022/11/11 08:53:21;;;;;;;0.80;0.68;;;;;;;20.34;36.95;101965.38;4527835;28;20045;-62
2022/11/11 08:55:50;;;;;;;0.98;0.60;;;;;;;20.35;37.15;101969.09;4534047;28;21130;-62
2022/11/11 08:58:19;;;;;;;1.23;0.60;;;;;;;20.34;37.42;101970.28;4534040;28;20132;-62
2022/11/11 09:00:49;;;;;;;0.90;0.45;;;;;;;20.34;37.96;101971.09;4535238;28;20041;-62
2022/11/11 09:03:17;;;;;;;0.65;0.40;;;;;;;20.34;37.55;101976.84;4534306;28;20037;-62
2022/11/11 09:05:46;;;;;;;0.73;0.60;;;;;;;20.34;37.57;101976.00;4535587;28;20533;-62
2022/11/11 09:08:15;;;;;;;1.52;0.60;;;;;;;20.31;38.43;101974.63;4533964;28;20049;-62
2022/11/11 09:10:45;;;;;;;0.70;0.50;;;;;;;20.35;38.75;101978.56;4534578;28;20045;-62
2022/11/11 09:13:14;;;;;;;0.77;0.60;;;;;;;20.34;38.94;101981.75;4534413;28;20045;-63
2022/11/11 09:15:42;;;;;;;0.60;0.60;;;;;;;20.34;38.19;101976.00;4533891;28;20045;-62
2022/11/11 09:18:11;;;;;;;1.23;0.70;;;;;;;20.34;38.04;101982.56;4533967;28;20045;-62
2022/11/11 09:20:40;;;;;;;0.52;0.52;;;;;;;20.34;38.13;101982.56;4535367;28;20525;-62
2022/11/11 09:23:09;;;;;;;1.00;0.40;;;;;;;20.34;37.66;101993.22;4534594;28;20076;-62
2022/11/11 09:25:38;;;;;;;1.83;0.70;;;;;;;20.34;37.76;101984.63;4534430;28;20537;-62
2022/11/11 09:28:07;;;;;;;1.90;0.50;;;;;;;20.34;37.49;101988.31;4533275;28;20049;-62
2022/11/11 09:30:36;;;;;;;0.88;0.40;;;;;;;20.34;37.14;101990.34;4532026;28;20810;-62
2022/11/11 09:33:05;;;;;;;0.70;0.50;;;;;;;20.34;37.70;101999.78;4532747;28;20049;-62
2022/11/11 09:35:35;;;;;;;0.60;0.50;;;;;;;20.35;37.31;102000.63;4533694;28;20048;-61
2022/11/11 09:38:04;;;;;;;0.88;0.50;;;;;;;20.34;37.44;102004.69;4532107;28;20045;-61
2022/11/11 09:41:13;;;;;;;0.60;0.50;;;;;;;20.35;37.57;102009.25;4532727;28;21005;-61
2022/11/11 09:43:53;;;;;;;0.57;0.30;;;;;;;20.34;37.17;102002.66;4533173;28;20046;-62
2022/11/11 09:46:38;;;;;;;1.65;0.50;;;;;;;20.36;37.11;102013.81;4531957;28;20111;-62
2022/11/11 09:49:43;;;;;;;0.55;0.55;;;;;;;20.36;36.88;102017.50;4531559;28;20057;-61
2022/11/11 09:52:56;;;;;;;0.40;0.30;;;;;;;20.35;36.96;102012.97;4533779;28;20076;-62
2022/11/11 09:55:49;;;;;;;0.68;0.38;;;;;;;20.35;37.45;102021.56;4510590;28;20046;-61
2022/11/11 09:58:23;;;;;;;0.73;0.40;;;;;;;20.36;37.14;102020.38;4533993;28;20596;-61
2022/11/11 10:01:05;;;;;;;0.80;0.30;;;;;;;20.36;36.50;102019.56;4533767;28;20041;-61
2022/11/11 10:03:40;;;;;;;0.93;0.30;;;;;;;20.37;36.68;102015.50;4530888;28;20984;-62
2022/11/11 10:06:18;;;;;;;1.10;0.30;;;;;;;20.37;36.57;102010.63;4531828;28;20045;-62
2022/11/11 10:09:01;;;;;;;0.20;0.20;;;;;;;20.36;36.70;102008.06;4533170;28;20181;-62
2022/11/11 10:11:43;;;;;;;0.65;0.40;;;;;;;20.37;36.47;102010.63;4530179;28;20041;-61
2022/11/11 10:14:13;;;;;;;0.57;0.40;;;;;;;20.38;36.65;102005.69;4533056;28;20068;-62
2022/11/11 10:17:05;;;;;;;0.70;0.50;;;;;;;20.38;36.23;102011.44;4532036;28;20640;-62
2022/11/11 10:19:59;;;;;;;0.82;0.60;;;;;;;20.38;36.45;102011.44;4532416;28;20045;-61
2022/11/11 10:22:37;;;;;;;0.55;0.43;;;;;;;20.38;36.04;102012.28;4531959;28;20045;-62
2022/11/11 10:25:12;;;;;;;0.45;0.28;;;;;;;20.38;36.06;102012.28;4533160;28;20037;-62
2022/11/11 10:27:43;;;;;;;0.60;0.40;;;;;;;20.39;36.16;102008.25;4531975;28;21224;-62
2022/11/11 10:30:16;;;;;;;0.40;0.28;;;;;;;20.39;36.42;102007.41;4531446;28;20092;-61
2022/11/11 10:32:52;;;;;;;0.90;0.47;;;;;;;20.40;36.25;102007.09;4531411;28;20048;-61
2022/11/11 10:35:24;;;;;;;0.57;0.50;;;;;;;20.38;36.23;101999.97;4533835;28;20077;-62
2022/11/11 10:38:25;;;;;;;0.40;0.40;;;;;;;20.41;36.50;102005.03;4530733;28;20041;-62
2022/11/11 10:41:00;;;;;;;0.60;0.60;;;;;;;20.40;35.84;102004.22;4531282;28;20049;-62
2022/11/11 10:43:29;;;;;;;0.35;0.30;;;;;;;20.41;36.20;102003.03;4531654;28;20057;-61
2022/11/11 10:46:23;;;;;;;0.63;0.30;;;;;;;20.42;36.62;102009.63;4533281;28;20045;-62
2022/11/11 10:49:06;;;;;;;0.70;0.40;;;;;;;20.42;37.21;102001.84;4531822;28;20054;-61
2022/11/11 10:51:43;;;;;;;0.43;0.30;;;;;;;20.43;37.42;102008.44;4531471;28;20080;-61
2022/11/11 10:54:20;;;;;;;1.17;0.50;;;;;;;20.43;37.04;102009.28;4533138;28;20041;-61
2022/11/11 10:56:58;;;;;;;0.73;0.45;;;;;;;20.43;37.10;102014.16;4532415;28;20049;-62
2022/11/11 10:59:35;;;;;;;0.30;0.30;;;;;;;20.44;36.96;102010.09;4533695;28;20045;-60
2022/11/11 11:02:21;;;;;;;0.75;0.50;;;;;;;20.42;36.46;102007.56;4532965;28;20136;-61
2022/11/11 11:05:00;;;;;;;0.70;0.35;;;;;;;20.46;36.31;102007.75;4544480;28;20053;-61
2022/11/11 11:07:40;;;;;;;0.82;0.50;;;;;;;20.46;36.82;102013.50;4532816;28;20052;-61
2022/11/11 11:10:17;;;;;;;0.93;0.40;;;;;;;20.46;37.09;102013.50;4530023;28;20054;-61
2022/11/11 11:13:12;;;;;;;0.40;0.40;;;;;;;20.47;36.77;102010.28;4530009;28;20770;-61
2022/11/11 11:15:48;;;;;;;0.60;0.38;;;;;;;20.48;36.59;102011.16;4531294;28;20037;-61
2022/11/11 11:18:18;;;;;;;0.40;0.40;;;;;;;20.47;36.48;102009.47;4531999;28;20045;-60
2022/11/11 11:21:01;;;;;;;0.80;0.50;;;;;;;20.48;36.44;102005.41;4533935;28;20065;-60
2022/11/11 11:23:40;;;;;;;2.00;0.75;;;;;;;21.03;47.81;102012.31;4536729;28;20045;-61
2022/11/11 11:26:12;;;;;;;4.22;0.88;;;;;;;21.35;46.97;102010.94;4535631;28;20592;-61
2022/11/11 11:28:58;;;;;;;0.80;0.40;;;;;;;20.75;39.12;102005.16;4534963;28;20164;-61
2022/11/11 11:31:39;;;;;;;0.30;0.20;;;;;;;20.66;37.34;102007.97;4534712;28;20040;-61
2022/11/11 11:34:07;;;;;;;0.50;0.40;;;;;;;20.62;36.92;102004.09;4536707;28;20769;-60
2022/11/11 11:36:37;;;;;;;0.47;0.45;;;;;;;20.63;36.70;101994.31;4534539;28;20040;-61
2022/11/11 11:39:07;;;;;;;0.73;0.50;;;;;;;20.61;36.82;101992.97;4534195;28;20072;-61
2022/11/11 11:41:49;;;;;;;0.45;0.40;;;;;;;20.62;35.88;101992.63;4533861;28;20041;-61
2022/11/11 11:44:28;;;;;;;0.20;0.20;;;;;;;20.63;35.72;101997.19;4534657;28;20044;-61
2022/11/11 11:47:06;;;;;;;0.50;0.40;;;;;;;20.63;35.92;101990.59;4535662;28;20084;-63
2022/11/11 11:49:59;;;;;;;0.35;0.30;;;;;;;20.65;35.78;101991.09;4533686;28;20057;-61
2022/11/11 11:52:31;;;;;;;0.20;0.20;;;;;;;20.65;35.74;101993.97;4533496;28;20045;-61
2022/11/11 11:55:24;;;;;;;1.17;0.30;;;;;;;20.66;35.55;101987.91;4535639;28;20044;-61
2022/11/11 11:57:56;;;;;;;0.15;0.15;;;;;;;20.66;35.52;101990.78;4535782;28;20041;-61
2022/11/11 12:00:35;;;;;;;0.28;0.22;;;;;;;20.66;34.76;101984.22;4535191;28;20033;-62
2022/11/11 12:03:31;;;;;;;0.20;0.20;;;;;;;20.68;34.86;101987.56;4535070;28;20053;-60
2022/11/11 12:06:33;;;;;;;0.63;0.20;;;;;;;20.70;34.57;101985.22;4534708;28;20037;-61
2022/11/11 12:09:44;;;;;;;0.73;0.40;;;;;;;20.69;34.72;101983.53;4525841;28;20088;-61
2022/11/11 12:12:31;;;;;;;0.30;0.30;;;;;;;20.70;34.14;101982.34;4532108;28;20069;-60
2022/11/11 12:15:16;;;;;;;0.40;0.30;;;;;;;20.71;34.48;101984.03;4533182;28;20980;-61
2022/11/11 12:18:11;;;;;;;0.45;0.30;;;;;;;20.70;33.86;101980.34;4533065;28;20045;-61
2022/11/11 12:20:53;;;;;;;0.40;0.30;;;;;;;20.69;33.94;101975.75;4534037;28;20048;-62
2022/11/11 12:23:22;;;;;;;0.30;0.30;;;;;;;20.72;34.01;101982.88;4534328;28;20045;-61
2022/11/11 12:25:57;;;;;;;0.80;0.20;;;;;;;20.72;34.26;101975.06;4533296;28;20033;-61
2022/11/11 12:28:54;;;;;;;0.30;0.30;;;;;;;20.73;34.07;101973.91;4533137;28;20037;-62
2022/11/11 12:31:36;;;;;;;0.90;0.38;;;;;;;20.75;34.19;101977.31;4532304;28;20045;-60
2022/11/11 12:34:33;;;;;;;0.50;0.40;;;;;;;20.76;33.63;101972.38;4534560;28;20041;-60
2022/11/11 12:37:14;;;;;;;0.63;0.40;;;;;;;20.76;34.13;101973.25;4535016;28;20045;-60
2022/11/11 12:39:43;;;;;;;0.20;0.20;;;;;;;20.76;34.13;101966.66;4533482;28;20081;-61
2022/11/11 12:42:42;;;;;;;0.40;0.40;;;;;;;20.76;34.06;101967.50;4534175;28;20041;-65
2022/11/11 12:45:39;;;;;;;0.35;0.32;;;;;;;20.76;34.34;101960.91;4534060;28;20045;-63
2022/11/11 12:48:36;;;;;;;0.30;0.30;;;;;;;20.77;34.03;101969.19;4533536;28;20077;-61
2022/11/11 12:51:14;;;;;;;0.30;0.30;;;;;;;20.78;33.82;101968.03;4534231;28;20053;-62
2022/11/11 12:54:18;;;;;;;0.38;0.30;;;;;;;20.79;34.16;101966.81;4533394;28;20049;-62
2022/11/11 12:56:56;;;;;;;0.47;0.25;;;;;;;20.78;34.42;101964.28;4530687;28;20045;-61
2022/11/11 12:59:39;;;;;;;0.68;0.40;;;;;;;20.79;34.56;101966.81;4533521;28;21025;-61
2022/11/11 13:02:36;;;;;;;1.00;0.40;;;;;;;20.80;34.24;101970.56;4534345;28;20045;-61
2022/11/11 13:05:24;;;;;;;0.30;0.30;;;;;;;20.80;34.11;101959.06;4532100;28;20754;-61
2022/11/11 13:08:16;;;;;;;0.20;0.20;;;;;;;20.80;33.93;101967.69;4531461;28;20659;-63